createdAt,value
2018-07-20T00:01:35.730Z,6.33
2018-07-20T00:04:05.726Z,6.70
2018-07-20T00:06:36.702Z,5.93
2018-07-20T00:09:09.553Z,6.60
2018-07-20T00:11:42.366Z,6.17
2018-07-20T00:14:14.402Z,6.57
2018-07-20T00:16:46.560Z,6.30
2018-07-20T00:19:16.238Z,5.87
2018-07-20T00:21:46.318Z,7.63
2018-07-20T00:24:19.058Z,6.50
2018-07-20T00:26:51.246Z,6.70
2018-07-20T00:29:22.278Z,5.20
2018-07-20T00:31:57.134Z,6.43
2018-07-20T00:34:32.986Z,7.60
2018-07-20T00:37:02.682Z,6.97
2018-07-20T00:39:39.110Z,6.50
2018-07-20T00:42:09.038Z,6.43
2018-07-20T00:44:39.018Z,6.70
2018-07-20T00:47:09.151Z,6.63
2018-07-20T00:49:38.810Z,6.40
2018-07-20T00:52:14.114Z,7.20
2018-07-20T00:54:44.154Z,6.93
2018-07-20T00:57:15.158Z,7.13
2018-07-20T00:59:44.806Z,6.77
2018-07-20T01:02:15.574Z,6.60
2018-07-20T01:04:48.658Z,6.43
2018-07-20T01:07:18.686Z,7.07
2018-07-20T01:09:48.454Z,6.43
2018-07-20T01:12:19.042Z,6.30
2018-07-20T01:14:48.939Z,6.50
2018-07-20T01:17:18.682Z,6.40
2018-07-20T01:19:48.743Z,5.90
2018-07-20T01:22:24.761Z,6.93
2018-07-20T01:24:54.718Z,6.87
2018-07-20T01:27:25.737Z,6.27
2018-07-20T01:29:55.669Z,6.70
2018-07-20T01:32:25.638Z,6.53
2018-07-20T01:34:55.679Z,5.50
2018-07-20T01:37:27.317Z,7.00
2018-07-20T01:39:58.965Z,6.60
2018-07-20T01:42:29.617Z,7.00
2018-07-20T01:45:02.994Z,6.73
2018-07-20T01:47:37.149Z,7.10
2018-07-20T01:50:10.125Z,6.47
2018-07-20T01:52:42.437Z,6.13
2018-07-20T01:55:12.961Z,5.90
2018-07-20T01:57:43.026Z,6.90
2018-07-20T02:00:14.169Z,6.67
2018-07-20T02:02:47.246Z,7.10
2018-07-20T02:05:19.001Z,6.07
2018-07-20T02:07:49.881Z,6.00
2018-07-20T02:10:19.686Z,5.97
2018-07-20T02:12:49.389Z,7.90
2018-07-20T02:15:25.993Z,6.07
2018-07-20T02:18:01.446Z,6.20
2018-07-20T02:20:32.305Z,6.40
2018-07-20T02:23:02.465Z,5.90
2018-07-20T02:25:34.258Z,6.03
2018-07-20T02:28:06.518Z,6.30
2018-07-20T02:30:39.993Z,6.07
2018-07-20T02:33:10.110Z,5.13
2018-07-20T02:35:40.330Z,5.87
2018-07-20T02:38:15.442Z,6.00
2018-07-20T02:40:45.205Z,6.33
2018-07-20T02:43:14.842Z,6.57
2018-07-20T02:45:44.670Z,6.33
2018-07-20T02:48:14.666Z,6.53
2018-07-20T02:50:47.397Z,6.07
2018-07-20T02:53:18.458Z,6.83
2018-07-20T02:55:50.505Z,6.10
2018-07-20T02:58:22.458Z,5.70
2018-07-20T03:00:52.402Z,6.63
2018-07-20T03:03:22.377Z,6.20
2018-07-20T03:05:53.125Z,5.70
2018-07-20T03:08:22.836Z,5.80
2018-07-20T03:10:52.418Z,6.20
2018-07-20T03:13:24.526Z,6.33
2018-07-20T03:15:54.565Z,5.80
2018-07-20T03:18:25.345Z,5.40
2018-07-20T03:20:54.963Z,5.53
2018-07-20T03:23:24.946Z,6.43
2018-07-20T03:25:55.661Z,6.00
2018-07-20T03:28:27.759Z,7.10
2018-07-20T03:30:59.754Z,6.27
2018-07-20T03:33:31.738Z,5.97
2018-07-20T03:36:05.026Z,6.80
2018-07-20T03:38:35.117Z,6.00
2018-07-20T03:41:06.199Z,5.83
2018-07-20T03:43:36.317Z,5.63
2018-07-20T03:46:10.550Z,6.67
2018-07-20T03:48:43.981Z,6.00
2018-07-20T03:51:14.157Z,6.13
2018-07-20T03:53:45.278Z,6.47
2018-07-20T03:56:19.053Z,6.00
2018-07-20T03:58:49.278Z,5.60
2018-07-20T04:01:22.254Z,5.97
2018-07-20T04:03:52.526Z,6.77
2018-07-20T04:06:23.417Z,7.40
2018-07-20T04:08:54.275Z,5.60
2018-07-20T04:11:27.641Z,6.83
2018-07-20T04:13:58.505Z,5.80
2018-07-20T04:16:39.209Z,6.77
2018-07-20T04:19:09.101Z,6.93
2018-07-20T04:21:38.785Z,6.73
2018-07-20T04:24:10.557Z,5.90
2018-07-20T04:26:41.461Z,6.50
2018-07-20T04:29:19.517Z,6.30
2018-07-20T04:31:50.453Z,6.00
2018-07-20T04:34:21.369Z,7.10
2018-07-20T04:36:55.461Z,7.73
2018-07-20T04:39:26.322Z,6.47
2018-07-20T04:41:56.217Z,6.93
2018-07-20T04:44:27.369Z,7.20
2018-07-20T04:46:59.973Z,6.83
2018-07-20T04:49:29.989Z,6.70
2018-07-20T04:52:01.809Z,6.20
2018-07-20T04:54:35.333Z,6.67
2018-07-20T04:57:06.261Z,7.27
2018-07-20T04:59:37.231Z,6.97
2018-07-20T05:02:10.977Z,6.83
2018-07-20T05:04:41.669Z,7.17
2018-07-20T05:07:15.725Z,6.20
2018-07-20T05:09:45.661Z,7.00
2018-07-20T05:12:19.981Z,7.13
2018-07-20T05:14:54.816Z,6.63
2018-07-20T05:17:25.625Z,7.23
2018-07-20T05:19:55.329Z,7.07
2018-07-20T05:22:25.165Z,7.47
2018-07-20T05:24:55.077Z,6.60
2018-07-20T05:27:25.041Z,7.10
2018-07-20T05:29:54.677Z,6.00
2018-07-20T05:32:26.505Z,7.30
2018-07-20T05:34:57.063Z,7.47
2018-07-20T05:37:30.873Z,7.10
2018-07-20T05:40:01.581Z,7.33
2018-07-20T05:42:31.341Z,6.53
2018-07-20T05:45:02.806Z,6.37
2018-07-20T05:47:33.749Z,6.83
2018-07-20T05:50:04.749Z,6.87
2018-07-20T05:52:34.349Z,7.00
2018-07-20T05:55:08.929Z,6.03
2018-07-20T05:57:38.813Z,6.53
2018-07-20T06:00:09.777Z,6.20
2018-07-20T06:02:39.805Z,6.93
2018-07-20T06:05:09.693Z,6.40
2018-07-20T06:07:40.641Z,6.37
2018-07-20T06:10:11.348Z,6.03
2018-07-20T06:12:42.172Z,5.90
2018-07-20T06:15:14.133Z,5.30
2018-07-20T06:17:44.964Z,6.23
2018-07-20T06:20:14.825Z,5.80
2018-07-20T06:22:48.462Z,6.50
2018-07-20T06:25:18.072Z,5.90
2018-07-20T06:27:49.561Z,5.60
2018-07-20T06:30:20.645Z,5.77
2018-07-20T06:32:51.454Z,5.23
2018-07-20T06:35:23.009Z,5.07
2018-07-20T06:37:57.381Z,5.03
2018-07-20T06:40:28.267Z,5.90
2018-07-20T06:43:04.993Z,5.87
2018-07-20T06:45:35.862Z,5.20
2018-07-20T06:48:06.673Z,5.97
2018-07-20T06:50:36.381Z,5.10
2018-07-20T06:53:06.296Z,4.83
2018-07-20T06:55:35.952Z,5.20
2018-07-20T06:58:05.737Z,4.87
2018-07-20T07:00:42.260Z,4.40
2018-07-20T07:03:13.061Z,5.00
2018-07-20T07:05:46.681Z,5.60
2018-07-20T07:08:16.484Z,5.07
2018-07-20T07:10:47.269Z,5.70
2018-07-20T07:13:27.228Z,5.13
2018-07-20T07:15:58.715Z,5.67
2018-07-20T07:18:45.073Z,5.10
2018-07-20T07:21:14.729Z,5.07
2018-07-20T07:23:44.520Z,4.10
2018-07-20T07:26:13.996Z,4.60
2018-07-20T07:28:55.740Z,5.20
2018-07-20T07:31:32.264Z,4.67
2018-07-20T07:34:02.124Z,4.47
2018-07-20T07:36:31.712Z,4.53
2018-07-20T07:39:08.256Z,4.00
2018-07-20T07:41:44.957Z,4.90
2018-07-20T07:44:14.536Z,4.33
2018-07-20T07:46:45.605Z,4.03
2018-07-20T07:49:15.441Z,4.90
2018-07-20T07:51:45.741Z,4.77
2018-07-20T07:54:31.992Z,4.43
2018-07-20T07:57:11.660Z,4.20
2018-07-20T07:59:49.505Z,5.10
2018-07-20T08:02:20.077Z,4.47
2018-07-20T08:04:54.121Z,4.80
2018-07-20T08:07:27.684Z,4.90
2018-07-20T08:09:57.357Z,3.83
2018-07-20T08:12:43.372Z,3.90
2018-07-20T08:15:12.978Z,3.80
2018-07-20T08:17:54.592Z,4.87
2018-07-20T08:20:24.521Z,4.27
2018-07-20T08:23:00.075Z,4.13
2018-07-20T08:25:30.785Z,3.80
2018-07-20T08:28:06.156Z,3.90
2018-07-20T08:30:37.153Z,3.93
2018-07-20T08:33:12.889Z,3.57
2018-07-20T08:35:43.456Z,3.57
2018-07-20T08:38:12.976Z,4.00
2018-07-20T08:40:50.064Z,4.30
2018-07-20T08:43:23.316Z,4.53
2018-07-20T08:45:54.204Z,4.20
2018-07-20T08:48:28.258Z,3.70
2018-07-20T08:50:59.860Z,4.10
2018-07-20T08:53:29.633Z,4.80
2018-07-20T08:56:02.566Z,4.30
2018-07-20T08:58:46.696Z,4.60
2018-07-20T09:01:22.349Z,4.90
2018-07-20T09:03:56.445Z,3.83
2018-07-20T09:06:26.205Z,4.43
2018-07-20T09:08:57.044Z,4.20
2018-07-20T09:11:26.957Z,3.30
2018-07-20T09:13:56.970Z,3.93
2018-07-20T09:16:27.741Z,3.80
2018-07-20T09:18:57.981Z,4.63
2018-07-20T09:21:44.256Z,3.57
2018-07-20T09:24:20.837Z,3.47
2018-07-20T09:26:54.189Z,3.13
2018-07-20T09:29:24.646Z,3.73
2018-07-20T09:31:58.046Z,3.60
2018-07-20T09:34:27.865Z,3.90
2018-07-20T09:36:57.704Z,3.63
2018-07-20T09:39:28.604Z,3.60
2018-07-20T09:42:02.076Z,2.83
2018-07-20T09:44:32.003Z,3.30
2018-07-20T09:47:11.665Z,3.20
2018-07-20T09:49:43.501Z,2.40
2018-07-20T09:52:13.568Z,2.93
2018-07-20T09:54:49.432Z,3.87
2018-07-20T09:57:22.944Z,2.87
2018-07-20T09:59:57.360Z,3.30
2018-07-20T10:02:30.544Z,2.43
2018-07-20T10:05:03.483Z,2.37
2018-07-20T10:07:34.269Z,3.53
2018-07-20T10:10:09.169Z,2.70
2018-07-20T10:12:40.029Z,2.30
2018-07-20T10:15:10.885Z,3.20
2018-07-20T10:17:42.781Z,2.87
2018-07-20T10:20:12.337Z,2.73
2018-07-20T10:22:42.868Z,2.67
2018-07-20T10:25:14.424Z,2.83
2018-07-20T10:30:20.808Z,2.53
2018-07-20T10:32:51.608Z,2.47
2018-07-20T10:35:24.529Z,2.63
2018-07-20T10:37:58.428Z,2.60
2018-07-20T10:40:28.729Z,2.17
2018-07-20T10:43:00.265Z,2.50
2018-07-20T10:45:36.589Z,2.97
2018-07-20T10:48:06.549Z,2.80
2018-07-20T10:50:36.348Z,3.17
2018-07-20T10:53:06.649Z,3.30
2018-07-20T10:55:37.412Z,3.00
2018-07-20T10:58:09.208Z,3.20
2018-07-20T11:00:38.756Z,3.90
2018-07-20T11:03:10.204Z,3.93
2018-07-20T11:05:39.664Z,3.60
2018-07-20T11:08:10.170Z,3.50
2018-07-20T11:10:40.856Z,3.90
2018-07-20T11:13:10.420Z,3.90
2018-07-20T11:15:41.348Z,3.50
2018-07-20T11:18:12.936Z,3.37
2018-07-20T11:20:44.472Z,3.83
2018-07-20T11:23:17.315Z,2.97
2018-07-20T11:25:47.151Z,2.80
2018-07-20T11:28:16.988Z,3.13
2018-07-20T11:30:48.536Z,3.33
2018-07-20T11:33:32.800Z,3.03
2018-07-20T11:36:05.876Z,3.10
2018-07-20T11:38:41.132Z,3.43
2018-07-20T11:41:10.663Z,3.33
2018-07-20T11:43:55.224Z,3.90
2018-07-20T11:46:25.140Z,4.87
2018-07-20T11:48:57.000Z,3.67
2018-07-20T11:51:37.903Z,3.40
2018-07-20T11:54:11.927Z,3.60
2018-07-20T11:56:44.860Z,3.73
2018-07-20T11:59:18.871Z,3.10
2018-07-20T12:01:48.724Z,3.90
2018-07-20T12:04:23.791Z,4.23
2018-07-20T12:07:01.281Z,3.47
2018-07-20T12:09:32.152Z,3.30
2018-07-20T12:12:01.940Z,3.50
2018-07-20T12:14:32.764Z,4.00
2018-07-20T12:17:06.047Z,7.07
2018-07-20T12:19:36.623Z,3.77
2018-07-20T12:22:08.360Z,4.27
2018-07-20T12:24:42.264Z,3.53
2018-07-20T12:27:15.377Z,3.43
2018-07-20T12:29:45.204Z,3.37
2018-07-20T12:32:15.100Z,3.37
2018-07-20T12:34:48.439Z,3.03
2018-07-20T12:37:19.053Z,3.10
2018-07-20T12:39:48.851Z,3.60
2018-07-20T12:42:24.300Z,3.23
2018-07-20T12:45:07.531Z,3.30
2018-07-20T12:47:37.409Z,2.70
2018-07-20T12:50:09.353Z,2.90
2018-07-20T12:52:41.116Z,3.00
2018-07-20T12:55:14.652Z,2.80
2018-07-20T12:57:45.260Z,2.90
2018-07-20T13:00:16.107Z,2.90
2018-07-20T13:02:46.972Z,2.80
2018-07-20T13:05:16.865Z,2.77
2018-07-20T13:07:46.776Z,2.60
2018-07-20T13:10:17.676Z,2.90
2018-07-20T13:12:49.311Z,3.30
2018-07-20T13:15:22.322Z,3.53
2018-07-20T13:17:52.207Z,3.70
2018-07-20T13:20:21.815Z,3.20
2018-07-20T13:22:51.359Z,3.00
2018-07-20T13:25:21.092Z,3.23
2018-07-20T13:27:56.408Z,3.13
2018-07-20T13:30:26.347Z,3.07
2018-07-20T13:32:57.287Z,3.37
2018-07-20T13:35:29.151Z,3.60
2018-07-20T13:38:00.085Z,3.27
2018-07-20T13:40:31.975Z,2.60
2018-07-20T13:43:01.643Z,3.03
2018-07-20T13:45:33.203Z,2.80
2018-07-20T13:48:07.899Z,3.33
2018-07-20T13:50:37.819Z,3.30
2018-07-20T13:53:12.135Z,2.50
2018-07-20T13:55:44.020Z,2.40
2018-07-20T13:58:15.871Z,2.50
2018-07-20T14:00:45.807Z,2.70
2018-07-20T14:03:15.963Z,2.60
2018-07-20T14:05:47.866Z,2.70
2018-07-20T14:08:18.800Z,2.93
2018-07-20T14:10:58.483Z,3.20
2018-07-20T14:13:29.475Z,2.40
2018-07-20T14:16:01.355Z,2.20
2018-07-20T14:18:31.187Z,2.70
2018-07-20T14:21:01.083Z,2.27
2018-07-20T14:23:32.959Z,2.43
2018-07-20T14:26:03.787Z,2.90
2018-07-20T14:28:34.620Z,2.90
2018-07-20T14:31:08.659Z,3.00
2018-07-20T14:33:38.492Z,3.10
2018-07-20T14:36:09.067Z,2.40
2018-07-20T14:38:38.779Z,2.77
2018-07-20T14:41:08.720Z,2.90
2018-07-20T14:43:39.619Z,3.97
2018-07-20T14:46:09.807Z,2.43
2018-07-20T14:48:41.459Z,3.33
2018-07-20T14:51:11.979Z,3.00
2018-07-20T14:53:42.423Z,3.10
2018-07-20T14:56:12.923Z,3.47
2018-07-20T14:58:44.675Z,3.40
2018-07-20T15:01:14.259Z,3.20
2018-07-20T15:03:47.579Z,3.37
2018-07-20T15:06:23.163Z,2.93
2018-07-20T15:08:53.907Z,3.60
2018-07-20T15:11:23.579Z,3.10
2018-07-20T15:13:54.375Z,3.77
2018-07-20T15:16:25.271Z,3.50
2018-07-20T15:18:54.891Z,3.10
2018-07-20T15:21:32.275Z,3.13
2018-07-20T15:24:02.187Z,3.43
2018-07-20T15:26:32.465Z,2.50
2018-07-20T15:29:02.259Z,3.10
2018-07-20T15:31:32.027Z,2.97
2018-07-20T15:34:03.878Z,2.90
2018-07-20T15:36:37.011Z,2.70
2018-07-20T15:39:10.431Z,2.63
2018-07-20T15:41:46.254Z,3.00
2018-07-20T15:44:20.759Z,3.10
2018-07-20T15:46:50.955Z,3.30
2018-07-20T15:49:25.602Z,3.13
2018-07-20T15:53:35.464Z,3.33
2018-07-20T15:54:50.118Z,2.90
2018-07-20T15:57:19.827Z,2.93
2018-07-20T16:00:00.650Z,2.60
2018-07-20T16:02:30.350Z,3.93
2018-07-20T16:05:01.147Z,2.80
2018-07-20T16:07:38.478Z,2.83
2018-07-20T16:10:07.798Z,3.23
2018-07-20T16:12:48.878Z,3.20
2018-07-20T16:15:19.739Z,2.73
2018-07-20T16:17:49.534Z,3.17
2018-07-20T16:20:25.003Z,3.20
2018-07-20T16:23:13.255Z,2.83
2018-07-20T16:25:48.334Z,3.07
2018-07-20T16:28:36.008Z,3.10
2018-07-20T16:31:31.659Z,3.13
2018-07-20T16:34:02.329Z,3.13
2018-07-20T16:36:32.139Z,2.70
2018-07-20T16:39:01.799Z,3.70
2018-07-20T16:41:48.807Z,3.57
2018-07-20T16:44:18.643Z,3.10
2018-07-20T16:46:50.451Z,3.00
2018-07-20T16:49:20.355Z,3.53
2018-07-20T16:51:50.219Z,3.10
2018-07-20T16:54:28.371Z,3.43
2018-07-20T16:56:59.858Z,3.30
2018-07-20T16:59:34.723Z,3.30
2018-07-20T17:02:04.491Z,4.00
2018-07-20T17:04:38.767Z,3.33
2018-07-20T17:07:15.691Z,3.40
2018-07-20T17:09:47.536Z,3.70
2018-07-20T17:12:18.404Z,3.73
2018-07-20T17:14:48.279Z,3.60
2018-07-20T17:17:18.103Z,3.30
2018-07-20T17:19:48.028Z,3.73
2018-07-20T17:22:41.219Z,3.90
2018-07-20T17:25:13.272Z,3.47
2018-07-20T17:27:49.071Z,3.40
2018-07-20T17:30:19.928Z,3.63
2018-07-20T17:32:50.772Z,3.70
2018-07-20T17:35:20.692Z,4.60
2018-07-20T17:37:51.280Z,3.80
2018-07-20T17:40:22.096Z,3.80
2018-07-20T17:42:52.728Z,3.80
2018-07-20T17:45:23.260Z,4.70
2018-07-20T17:47:52.787Z,4.17
2018-07-20T17:50:22.671Z,3.83
2018-07-20T17:52:52.342Z,3.73
2018-07-20T17:55:24.205Z,4.23
2018-07-20T17:57:56.164Z,3.53
2018-07-20T18:00:34.143Z,3.83
2018-07-20T18:03:09.419Z,3.40
2018-07-20T18:05:40.419Z,4.73
2018-07-20T18:08:11.643Z,4.37
2018-07-20T18:10:42.527Z,4.57
2018-07-20T18:13:12.247Z,3.70
2018-07-20T18:15:43.828Z,4.50
2018-07-20T18:18:13.322Z,4.23
2018-07-20T18:20:42.911Z,4.90
2018-07-20T18:23:12.539Z,4.53
2018-07-20T18:25:42.215Z,4.40
2018-07-20T18:28:11.842Z,4.23
2018-07-20T18:30:41.467Z,4.50
2018-07-20T18:33:11.279Z,4.37
2018-07-20T18:35:46.863Z,4.63
2018-07-20T18:38:17.215Z,4.67
2018-07-20T18:40:47.288Z,4.70
2018-07-20T18:43:18.408Z,4.80
2018-07-20T18:45:51.667Z,4.97
2018-07-20T18:48:33.547Z,5.63
2018-07-20T18:51:03.700Z,4.30
2018-07-20T18:53:33.007Z,4.30
2018-07-20T18:56:03.795Z,4.77
2018-07-20T18:58:36.862Z,4.80
2018-07-20T19:01:06.883Z,5.23
2018-07-20T19:03:37.774Z,5.20
2018-07-20T19:06:07.527Z,4.90
2018-07-20T19:08:39.654Z,5.00
2018-07-20T19:11:11.386Z,5.40
2018-07-20T19:13:41.239Z,5.20
2018-07-20T19:16:12.371Z,5.27
2018-07-20T19:18:42.127Z,6.10
2018-07-20T19:21:12.962Z,5.30
2018-07-20T19:23:42.660Z,5.80
2018-07-20T19:26:12.671Z,5.83
2018-07-20T19:28:43.586Z,5.90
2018-07-20T19:31:17.306Z,5.57
2018-07-20T19:33:47.382Z,6.27
2018-07-20T19:36:18.226Z,7.03
2018-07-20T19:38:47.926Z,5.20
2018-07-20T19:41:25.827Z,5.80
2018-07-20T19:43:55.847Z,5.60
2018-07-20T19:46:26.807Z,6.40
2018-07-20T19:49:03.678Z,7.37
2018-07-20T19:51:33.563Z,6.30
2018-07-20T19:54:04.123Z,6.27
2018-07-20T19:56:39.730Z,6.83
2018-07-20T19:59:09.743Z,6.87
2018-07-20T20:01:40.447Z,6.50
2018-07-20T20:04:10.380Z,7.40
2018-07-20T20:06:43.554Z,6.43
2018-07-20T20:09:14.498Z,6.30
2018-07-20T20:11:44.575Z,5.70
2018-07-20T20:14:14.706Z,6.70
2018-07-20T20:16:44.670Z,6.03
2018-07-20T20:19:18.784Z,6.27
2018-07-20T20:21:48.370Z,5.80
2018-07-20T20:24:21.342Z,6.10
2018-07-20T20:26:55.270Z,5.83
2018-07-20T20:29:30.565Z,5.77
2018-07-20T20:32:00.482Z,5.40
2018-07-20T20:34:32.083Z,5.93
2018-07-20T20:37:01.751Z,6.03
2018-07-20T20:39:32.350Z,6.30
2018-07-20T20:42:03.342Z,6.90
2018-07-20T20:44:33.406Z,6.60
2018-07-20T20:47:03.619Z,6.30
2018-07-20T20:49:34.690Z,6.90
2018-07-20T20:52:05.739Z,6.90
2018-07-20T20:54:37.307Z,6.60
2018-07-20T20:57:09.474Z,6.30
2018-07-20T20:59:40.375Z,6.03
2018-07-20T21:02:09.942Z,5.90
2018-07-20T21:04:44.213Z,6.00
2018-07-20T21:07:13.866Z,7.60
2018-07-20T21:09:43.744Z,7.53
2018-07-20T21:12:14.804Z,7.03
2018-07-20T21:14:46.854Z,6.80
2018-07-20T21:17:16.926Z,6.53
2018-07-20T21:19:46.530Z,6.40
2018-07-20T21:22:18.662Z,7.57
2018-07-20T21:24:53.570Z,6.57
2018-07-20T21:27:24.390Z,6.50
2018-07-20T21:29:56.598Z,7.43
2018-07-20T21:32:33.646Z,6.83
2018-07-20T21:35:04.642Z,6.80
2018-07-20T21:37:35.646Z,6.97
2018-07-20T21:40:05.482Z,6.60
2018-07-20T21:42:35.074Z,6.97
2018-07-20T21:45:06.170Z,7.03
2018-07-20T21:47:38.102Z,6.80
2018-07-20T21:50:12.254Z,6.67
2018-07-20T21:52:44.261Z,6.57
2018-07-20T21:55:18.640Z,6.83
2018-07-20T21:57:49.398Z,6.33
2018-07-20T22:00:21.494Z,6.90
2018-07-20T22:02:54.121Z,7.33
2018-07-20T22:05:25.303Z,6.30
2018-07-20T22:07:55.230Z,7.33
2018-07-20T22:10:27.354Z,7.30
2018-07-20T22:12:58.479Z,6.90
2018-07-20T22:15:28.594Z,7.57
2018-07-20T22:17:59.318Z,7.63
2018-07-20T22:20:32.142Z,7.67
2018-07-20T22:23:02.034Z,6.93
2018-07-20T22:25:31.875Z,7.90
2018-07-20T22:28:01.614Z,7.77
2018-07-20T22:30:32.786Z,6.87
2018-07-20T22:33:04.378Z,7.13
2018-07-20T22:35:35.342Z,7.20
2018-07-20T22:38:05.074Z,7.90
2018-07-20T22:40:35.158Z,7.37
2018-07-20T22:43:06.458Z,7.77
2018-07-20T22:45:37.510Z,8.63
2018-07-20T22:48:07.566Z,7.83
2018-07-20T22:50:39.634Z,7.67
2018-07-20T22:53:16.209Z,7.93
2018-07-20T22:55:46.222Z,7.80
2018-07-20T22:58:20.821Z,8.17
2018-07-20T23:00:51.838Z,8.10
2018-07-20T23:03:23.937Z,7.90
2018-07-20T23:05:57.538Z,8.57
2018-07-20T23:08:30.618Z,7.47
2018-07-20T23:11:00.270Z,7.67
2018-07-20T23:13:32.414Z,8.07
2018-07-20T23:16:02.270Z,9.07
2018-07-20T23:18:31.904Z,9.07
2018-07-20T23:21:03.960Z,8.90
2018-07-20T23:23:34.015Z,10.73
2018-07-20T23:26:05.342Z,10.07
2018-07-20T23:28:41.054Z,9.97
2018-07-20T23:31:11.846Z,8.90
2018-07-20T23:33:45.790Z,8.50
2018-07-20T23:36:21.385Z,8.73
2018-07-20T23:38:51.527Z,9.17
2018-07-20T23:41:23.662Z,8.27
2018-07-20T23:43:55.760Z,9.47
2018-07-20T23:46:26.801Z,9.50
2018-07-20T23:48:56.790Z,9.80
2018-07-20T23:51:31.809Z,10.30
2018-07-20T23:54:02.805Z,8.83
2018-07-20T23:56:33.193Z,10.10
2018-07-20T23:59:03.325Z,9.40
